Time;durP1;ratioP1;P1;durP2;ratioP2;P2;SDS_P1;SDS_P2;PMS_P1;PMS_P2;Temp;Humidity;BMP_temperature;BMP_pressure;BME280_temperature;BME280_humidity;BME280_pressure;Samples;Min_cycle;Max_cycle;Signal;HPM_P1;HPM_P2
2021/09/01 02:49:51;;;;;;;1.08;0.73;;;9.40;99.90;;;;;;2410717;23;20703;-96
2021/09/01 02:53:36;;;;;;;0.45;0.38;;;9.40;99.90;;;;;;4881061;29;20433;-96
2021/09/01 07:02:50;;;;;;;0.30;0.30;;;13.20;99.90;;;;;;6016197;23;20400;31
2021/09/01 07:05:47;;;;;;;0.50;0.40;;;13.20;99.90;;;;;;4997403;23;20439;-96
2021/09/01 07:11:08;;;;;;;2.20;0.80;;;12.70;99.90;;;;;;4903939;29;20457;-95
2021/09/01 07:13:35;;;;;;;0.40;0.40;;;12.30;99.90;;;;;;4905701;29;20504;-93
2021/09/01 09:37:35;;;;;;;0.68;0.50;;;14.70;99.90;;;;;;5544467;23;20503;-96
2021/09/01 09:40:22;;;;;;;1.05;0.50;;;15.10;99.90;;;;;;4953859;29;20433;-95
2021/09/01 09:43:26;;;;;;;0.20;0.20;;;15.40;99.90;;;;;;4948957;29;20472;-95
2021/09/01 10:08:44;;;;;;;0.70;0.30;;;15.70;99.90;;;;;;4962929;28;20417;-94
2021/09/01 10:11:15;;;;;;;1.98;0.40;;;16.20;99.90;;;;;;4950044;29;20509;-95
2021/09/01 10:13:51;;;;;;;0.20;0.20;;;16.00;99.90;;;;;;4950064;29;20437;-95
2021/09/01 10:17:02;;;;;;;0.30;0.30;;;16.00;99.90;;;;;;4941734;29;20444;-96
2021/09/01 10:19:35;;;;;;;0.30;0.30;;;16.20;99.90;;;;;;4872952;29;20427;-95
2021/09/01 10:22:11;;;;;;;0.20;0.20;;;16.40;99.90;;;;;;4884183;29;20440;-95
2021/09/01 10:24:55;;;;;;;1.50;0.60;;;16.50;99.90;;;;;;4937799;23;20456;-94
2021/09/01 10:27:37;;;;;;;0.50;0.50;;;16.70;99.90;;;;;;4942946;29;20534;-94
2021/09/01 10:30:21;;;;;;;0.40;0.40;;;16.70;99.90;;;;;;4939906;29;20522;-95
2021/09/01 10:32:51;;;;;;;0.20;0.20;;;16.60;99.90;;;;;;4940803;29;20436;-95
2021/09/01 10:35:37;;;;;;;0.25;0.25;;;16.40;99.90;;;;;;4955499;23;20454;-94
2021/09/01 10:38:04;;;;;;;0.20;0.20;;;16.00;99.90;;;;;;4938767;29;20442;-95
2021/09/01 10:40:31;;;;;;;0.22;0.22;;;15.60;99.90;;;;;;4940499;29;20855;-95
2021/09/01 10:43:28;;;;;;;1.58;0.90;;;15.50;99.90;;;;;;4941124;29;20898;-95
2021/09/01 10:46:22;;;;;;;1.40;0.60;;;15.70;99.90;;;;;;4940311;29;20787;-95
2021/09/01 10:49:13;;;;;;;0.40;0.40;;;16.00;99.90;;;;;;4942444;29;20459;-95
2021/09/01 10:51:52;;;;;;;0.80;0.80;;;16.30;99.90;;;;;;4938594;29;20986;-96
2021/09/01 10:58:16;;;;;;;0.30;0.30;;;16.70;99.90;;;;;;4823345;29;20610;-96
2021/09/01 11:00:53;;;;;;;0.90;0.40;;;16.50;99.90;;;;;;4828572;29;20459;-94
2021/09/01 11:03:34;;;;;;;0.30;0.30;;;16.30;99.90;;;;;;4829074;29;20504;-95
2021/09/01 11:06:26;;;;;;;0.10;0.10;;;16.00;99.90;;;;;;4828124;29;20960;-96
2021/09/01 11:09:53;;;;;;;0.50;0.50;;;16.10;99.90;;;;;;4837331;29;20570;-96
2021/09/01 11:12:26;;;;;;;0.70;0.50;;;16.40;99.90;;;;;;4855722;29;20463;-95
2021/09/01 11:15:02;;;;;;;0.20;0.20;;;16.60;99.90;;;;;;4902425;29;20443;-96
2021/09/01 11:17:33;;;;;;;0.20;0.20;;;16.50;99.90;;;;;;4885676;29;20519;-96
2021/09/01 11:20:03;;;;;;;2.45;1.75;;;16.30;99.90;;;;;;4900255;29;20961;-96
2021/09/01 11:22:37;;;;;;;5.63;3.75;;;16.00;99.90;;;;;;4899456;29;20518;-96
2021/09/01 11:25:15;;;;;;;5.30;3.72;;;15.80;99.90;;;;;;4899803;29;20931;-96
2021/09/01 11:28:01;;;;;;;7.68;4.00;;;16.10;99.90;;;;;;4893420;29;20439;-96
2021/09/01 11:31:03;;;;;;;6.90;3.60;;;16.50;99.90;;;;;;4938807;29;20490;-96
2021/09/01 11:34:32;;;;;;;5.82;3.58;;;16.90;99.90;;;;;;4906285;29;20776;-95
2021/09/01 11:37:24;;;;;;;5.50;3.20;;;17.40;99.90;;;;;;4883486;29;20425;-96
2021/09/01 11:39:56;;;;;;;5.68;3.42;;;17.60;99.90;;;;;;4878083;29;20534;-96
2021/09/01 11:42:34;;;;;;;5.30;3.67;;;17.10;99.90;;;;;;4870589;29;20526;-96
2021/09/01 11:45:17;;;;;;;6.88;4.20;;;16.60;99.90;;;;;;4870226;29;20436;-95
2021/09/01 11:47:47;;;;;;;7.78;4.20;;;16.30;99.90;;;;;;4866949;29;20435;-95
2021/09/01 11:50:36;;;;;;;6.18;3.63;;;16.20;99.90;;;;;;4870033;29;20443;-96
2021/09/01 11:53:14;;;;;;;6.05;3.83;;;16.30;99.90;;;;;;4875801;29;20429;-96
2021/09/01 11:55:50;;;;;;;5.10;3.60;;;16.90;99.90;;;;;;4940000;23;20439;-96
2021/09/01 11:58:20;;;;;;;8.55;3.40;;;17.50;99.90;;;;;;4941489;29;20432;-96
2021/09/01 12:00:51;;;;;;;5.93;3.70;;;18.00;99.90;;;;;;4939403;29;20434;-96
2021/09/01 12:03:22;;;;;;;4.68;3.35;;;18.10;99.90;;;;;;4938689;29;20500;-96
2021/09/01 12:06:09;;;;;;;4.85;3.33;;;18.70;99.90;;;;;;4949872;29;20443;-96
2021/09/01 12:08:55;;;;;;;4.97;3.35;;;19.10;99.90;;;;;;4951976;29;20442;-96
2021/09/01 12:12:04;;;;;;;5.27;3.53;;;18.70;99.90;;;;;;4941757;29;20427;-94
2021/09/01 12:15:04;;;;;;;5.40;3.50;;;18.20;99.90;;;;;;4945437;29;20447;-96
2021/09/01 12:17:34;;;;;;;6.20;3.63;;;17.90;99.90;;;;;;4945668;29;20432;-96
2021/09/01 12:20:29;;;;;;;6.82;3.60;;;18.20;99.90;;;;;;4922181;29;20438;-96
2021/09/01 12:22:57;;;;;;;5.47;3.70;;;18.10;99.90;;;;;;4945298;29;20424;-96
2021/09/01 12:25:38;;;;;;;6.50;3.63;;;17.80;99.90;;;;;;4944907;29;20432;-96
2021/09/01 12:28:17;;;;;;;4.88;3.67;;;17.40;99.90;;;;;;4939472;29;20475;-96
2021/09/01 12:31:01;;;;;;;4.28;3.17;;;17.30;99.90;;;;;;4957709;23;20965;-96
2021/09/01 12:33:30;;;;;;;5.30;3.33;;;18.70;99.90;;;;;;4939176;29;20530;-96
2021/09/01 12:35:59;;;;;;;4.80;3.43;;;19.50;99.90;;;;;;4940450;29;20442;-95
2021/09/01 12:38:27;;;;;;;5.15;3.40;;;19.40;99.90;;;;;;4939672;29;20445;-96
2021/09/01 12:40:54;;;;;;;4.93;3.17;;;19.50;99.90;;;;;;4939795;29;20431;-95
2021/09/01 12:43:26;;;;;;;5.20;3.42;;;20.10;99.90;;;;;;4939515;29;20439;-96
2021/09/01 12:46:05;;;;;;;5.70;3.00;;;20.70;96.40;;;;;;4940808;29;20446;-96
2021/09/01 12:48:35;;;;;;;5.00;3.40;;;21.10;98.90;;;;;;4940323;29;20432;-95
2021/09/01 12:51:08;;;;;;;4.22;3.20;;;21.00;94.50;;;;;;4939656;29;20435;-96
2021/09/01 12:53:36;;;;;;;5.37;3.10;;;20.90;97.60;;;;;;4939786;29;20436;-96
2021/09/01 12:56:03;;;;;;;5.60;3.30;;;21.00;92.80;;;;;;4939749;29;20467;-96
2021/09/01 12:58:31;;;;;;;5.25;3.35;;;21.50;94.60;;;;;;4939295;29;21132;-96
2021/09/01 13:00:58;;;;;;;6.38;3.13;;;22.40;92.60;;;;;;4940633;29;20458;-96
2021/09/01 13:03:28;;;;;;;5.80;3.30;;;22.30;90.00;;;;;;4939350;29;20835;-95
2021/09/01 13:06:18;;;;;;;5.97;3.20;;;21.60;90.50;;;;;;4941381;29;20435;-96
2021/09/01 13:08:45;;;;;;;5.72;3.28;;;20.40;93.40;;;;;;4941203;29;20915;-94
2021/09/01 13:24:21;;;;;;;6.67;3.13;;;19.70;97.90;;;;;;4935385;29;20507;-96
2021/09/01 13:26:58;;;;;;;4.77;3.20;;;20.30;97.50;;;;;;4939890;29;21012;-95
2021/09/01 13:29:45;;;;;;;5.00;3.42;;;21.80;96.20;;;;;;4937940;29;20511;-96
2021/09/01 13:32:20;;;;;;;5.35;3.08;;;22.40;95.30;;;;;;4922704;29;20455;-96
2021/09/01 13:38:42;;;;;;;4.57;3.28;;;23.10;91.60;;;;;;5009879;23;20431;-96
2021/09/01 13:41:34;;;;;;;4.93;3.33;;;23.00;87.10;;;;;;4846064;29;20534;-93
2021/09/01 13:44:13;;;;;;;6.32;3.33;;;22.10;88.60;;;;;;4856183;29;20868;-95
2021/09/01 13:46:45;;;;;;;7.13;3.53;;;21.10;86.60;;;;;;4844502;29;20440;-95
2021/09/01 13:49:12;;;;;;;6.90;3.20;;;20.50;89.40;;;;;;4844163;29;20792;-95
2021/09/01 13:51:39;;;;;;;6.07;3.10;;;20.30;95.30;;;;;;4857184;29;20460;-95
2021/09/01 13:54:50;;;;;;;4.60;3.25;;;20.70;91.80;;;;;;4860175;29;20523;-92
2021/09/01 13:57:18;;;;;;;7.07;3.10;;;20.70;95.00;;;;;;4835930;29;20800;-93
2021/09/01 13:59:46;;;;;;;4.93;3.25;;;20.40;95.40;;;;;;4843675;29;20796;-91
2021/09/01 14:02:28;;;;;;;5.60;3.50;;;20.10;92.80;;;;;;4843340;29;20439;-92
2021/09/01 14:04:55;;;;;;;7.93;3.45;;;19.80;93.50;;;;;;4843568;29;20446;-95
2021/09/01 14:07:23;;;;;;;7.47;3.30;;;19.30;92.80;;;;;;4843813;29;20428;-96
2021/09/01 14:09:53;;;;;;;5.57;3.40;;;18.80;94.40;;;;;;4845131;29;20444;-96
2021/09/01 14:12:21;;;;;;;5.57;3.40;;;18.40;94.20;;;;;;4843704;29;20443;-95
2021/09/01 14:15:00;;;;;;;5.38;3.60;;;18.10;98.70;;;;;;4843054;29;21200;-95
2021/09/01 14:17:44;;;;;;;6.67;3.60;;;17.90;98.40;;;;;;4865800;29;20436;-96
2021/09/01 14:20:11;;;;;;;7.35;3.50;;;17.80;98.00;;;;;;4920062;29;20984;-94
2021/09/01 14:22:38;;;;;;;6.10;3.50;;;18.40;97.70;;;;;;4919499;29;20515;-95
2021/09/01 14:25:12;;;;;;;5.53;3.20;;;20.00;96.70;;;;;;4919346;29;20565;-95
2021/09/01 14:27:39;;;;;;;5.80;3.33;;;21.40;93.80;;;;;;4919156;29;20440;-94
2021/09/01 14:30:07;;;;;;;6.43;3.30;;;22.20;94.00;;;;;;4918309;29;20860;-94
2021/09/01 14:32:37;;;;;;;6.70;3.70;;;21.90;91.30;;;;;;4918953;29;20433;-95
2021/09/01 14:35:32;;;;;;;5.03;3.67;;;21.20;92.00;;;;;;4918840;29;20449;-94
2021/09/01 14:38:05;;;;;;;4.68;3.58;;;20.40;95.40;;;;;;4918661;29;20521;-95
2021/09/01 14:40:32;;;;;;;4.47;3.40;;;19.70;95.20;;;;;;4919141;29;20459;-94
2021/09/01 14:43:00;;;;;;;4.93;3.45;;;19.90;94.70;;;;;;4919875;29;20433;-94
2021/09/01 14:45:27;;;;;;;4.47;3.53;;;20.80;93.80;;;;;;4920435;29;20466;-96
2021/09/01 14:52:07;;;;;;;;;;;;;;;;;;;;;
2021/09/01 14:58:47;;;;;;;8.13;3.67;;;21.10;96.30;;;;;;4781972;29;20913;-96
2021/09/01 15:01:36;;;;;;;4.80;3.50;;;21.70;92.60;;;;;;4776050;29;20537;-95
2021/09/01 15:04:17;;;;;;;4.80;3.50;;;22.10;92.40;;;;;;4772915;30;20450;-95
2021/09/01 15:07:43;;;;;;;5.15;3.40;;;22.10;91.50;;;;;;4905146;23;20437;-95
2021/09/01 15:10:30;;;;;;;8.50;3.47;;;21.70;92.00;;;;;;4884274;29;20441;-95
2021/09/01 15:26:40;;;;;;;5.82;3.80;;;18.00;99.90;;;;;;5184933;23;20439;-96
2021/09/01 15:29:11;;;;;;;6.68;3.53;;;18.00;99.90;;;;;;4940405;29;20948;-95
2021/09/01 15:34:36;;;;;;;5.57;3.83;;;17.50;99.90;;;;;;4955717;23;20479;-95
2021/09/01 15:52:38;;;;;;;6.70;4.07;;;15.70;99.90;;;;;;4956127;29;21011;-95
2021/09/01 15:58:47;;;;;;;7.33;4.60;;;15.30;99.90;;;;;;5466822;23;20434;-96
2021/09/01 16:02:02;;;;;;;6.80;4.15;;;15.20;99.90;;;;;;4814368;29;20453;-93
2021/09/01 16:04:31;;;;;;;8.52;4.25;;;16.50;99.90;;;;;;4832365;29;20453;-90
2021/09/01 16:06:59;;;;;;;8.02;3.90;;;17.90;99.90;;;;;;4809066;29;20438;-94
2021/09/01 16:09:26;;;;;;;6.45;3.88;;;19.20;99.90;;;;;;4808460;29;20433;-91
2021/09/01 16:12:00;;;;;;;6.72;3.83;;;20.00;99.90;;;;;;4812060;29;20465;-88
2021/09/01 16:14:39;;;;;;;5.70;3.83;;;20.60;99.90;;;;;;4811710;29;20425;-88
2021/09/01 16:17:50;;;;;;;5.57;3.60;;;20.90;99.90;;;;;;4812342;29;20510;-94
2021/09/01 16:20:26;;;;;;;7.05;3.60;;;20.90;99.80;;;;;;4793910;29;20560;-92
2021/09/01 16:22:59;;;;;;;7.85;3.92;;;20.90;98.90;;;;;;4812403;29;21027;-91
2021/09/01 16:25:59;;;;;;;6.63;3.88;;;21.20;97.90;;;;;;4816760;29;20441;-95
2021/09/01 16:28:35;;;;;;;8.50;3.72;;;21.30;97.90;;;;;;4814260;29;20866;-94
2021/09/01 16:31:02;;;;;;;6.55;4.00;;;21.40;97.70;;;;;;4812088;29;20479;-95
2021/09/01 16:34:23;;;;;;;5.82;3.58;;;20.60;98.30;;;;;;4829056;29;20433;-96
2021/09/01 16:37:06;;;;;;;7.57;3.87;;;19.80;99.90;;;;;;4790577;29;20445;-96
2021/09/01 16:40:02;;;;;;;7.57;4.07;;;19.70;99.90;;;;;;4867338;29;20455;-94
2021/09/01 16:42:31;;;;;;;6.90;4.40;;;19.40;99.80;;;;;;4866153;29;20454;-93
2021/09/01 16:45:01;;;;;;;8.73;4.90;;;18.70;99.90;;;;;;4865343;29;20437;-95
2021/09/01 16:47:32;;;;;;;9.15;4.90;;;18.20;99.90;;;;;;4865737;29;20813;-90
2021/09/01 16:49:59;;;;;;;7.93;5.00;;;17.80;99.90;;;;;;4867916;29;20442;-93
2021/09/01 16:52:31;;;;;;;8.43;4.65;;;17.20;99.90;;;;;;4865067;29;20442;-92
2021/09/01 16:55:03;;;;;;;8.88;5.07;;;16.90;99.90;;;;;;4863209;29;20446;-91
2021/09/01 16:57:46;;;;;;;9.43;5.63;;;16.50;99.90;;;;;;4864168;29;20521;-88
2021/09/01 17:00:23;;;;;;;8.43;4.55;;;16.20;99.90;;;;;;4868156;29;20448;-93
2021/09/01 17:02:52;;;;;;;7.38;4.50;;;16.10;99.90;;;;;;4870255;29;20480;-90
2021/09/01 17:05:22;;;;;;;8.85;4.70;;;16.30;99.90;;;;;;4874839;29;20506;-94
2021/09/01 17:08:01;;;;;;;7.53;4.18;;;16.30;99.90;;;;;;4864540;29;20787;-92
2021/09/01 17:10:29;;;;;;;8.02;4.70;;;16.20;99.90;;;;;;4850662;29;20818;-96
2021/09/01 17:12:56;;;;;;;9.90;4.83;;;15.90;99.90;;;;;;4865572;29;20430;-89
2021/09/01 17:15:23;;;;;;;9.30;4.35;;;15.70;99.90;;;;;;4862320;29;20578;-93
2021/09/01 17:17:50;;;;;;;7.35;4.53;;;15.50;99.90;;;;;;4864998;29;20435;-91
2021/09/01 17:20:18;;;;;;;12.75;4.38;;;15.30;99.90;;;;;;4910351;29;20435;-93
2021/09/01 17:23:02;;;;;;;7.30;4.50;;;15.20;99.90;;;;;;5044810;23;20404;-95
2021/09/01 17:28:57;;;;;;;10.68;4.65;;;15.00;99.90;;;;;;580845;23;20880;-91
2021/09/01 17:31:53;;;;;;;9.38;4.80;;;14.90;99.90;;;;;;4885769;29;20448;-96
2021/09/01 17:34:25;;;;;;;6.95;4.50;;;14.80;99.90;;;;;;4899363;29;20496;-94
2021/09/01 17:36:52;;;;;;;6.60;4.57;;;14.80;99.90;;;;;;4886448;29;20458;-94
2021/09/01 17:39:21;;;;;;;12.60;5.28;;;14.80;99.90;;;;;;4900000;29;20432;-93
2021/09/01 17:41:48;;;;;;;7.18;4.72;;;14.70;99.90;;;;;;4899531;29;20436;-94
2021/09/01 17:44:17;;;;;;;7.82;4.90;;;14.70;99.90;;;;;;4898938;29;20828;-94
2021/09/01 17:46:45;;;;;;;8.27;5.00;;;14.60;99.90;;;;;;4940043;23;20952;-94
2021/09/01 17:49:15;;;;;;;7.43;5.00;;;14.50;99.90;;;;;;4936796;29;20437;-94
2021/09/01 17:51:44;;;;;;;6.47;4.82;;;14.50;99.90;;;;;;4906744;29;20452;-93
2021/09/01 17:54:11;;;;;;;11.73;5.38;;;14.30;99.90;;;;;;4903941;29;20951;-94
2021/09/01 17:56:39;;;;;;;7.55;5.25;;;14.30;99.90;;;;;;4904756;29;20972;-95
2021/09/01 17:59:06;;;;;;;7.28;4.95;;;14.20;99.90;;;;;;4904843;29;20429;-94
2021/09/01 18:01:33;;;;;;;8.07;4.82;;;14.20;99.90;;;;;;4906273;29;20433;-94
2021/09/01 18:04:01;;;;;;;11.63;5.28;;;14.10;99.90;;;;;;4905948;29;20496;-95
2021/09/01 18:06:28;;;;;;;7.10;5.07;;;14.00;99.90;;;;;;4906567;29;20447;-94
2021/09/01 18:08:55;;;;;;;6.78;5.05;;;14.00;99.90;;;;;;4905479;29;20429;-94
2021/09/01 18:11:22;;;;;;;8.65;5.35;;;13.90;99.90;;;;;;4910758;29;20492;-95
2021/09/01 18:13:49;;;;;;;7.97;4.93;;;13.90;99.90;;;;;;4906783;29;20512;-95
2021/09/01 18:16:19;;;;;;;8.70;5.15;;;13.90;99.90;;;;;;4910572;29;20439;-95
2021/09/01 18:18:47;;;;;;;9.55;5.07;;;13.90;99.90;;;;;;4907319;29;20421;-95
2021/09/01 18:21:16;;;;;;;8.07;4.93;;;13.80;99.90;;;;;;4907183;29;20451;-94
2021/09/01 18:23:47;;;;;;;9.52;5.15;;;13.90;99.90;;;;;;4908692;29;20429;-95
2021/09/01 18:26:15;;;;;;;8.07;5.10;;;13.80;99.90;;;;;;4908014;29;20443;-94
2021/09/01 18:28:42;;;;;;;7.47;5.22;;;13.80;99.90;;;;;;4905471;29;20435;-95
2021/09/01 18:31:10;;;;;;;9.10;5.13;;;13.70;99.90;;;;;;4922621;29;20427;-95
2021/09/01 18:33:38;;;;;;;7.47;5.18;;;13.80;99.90;;;;;;4926127;29;20495;-95
2021/09/01 18:36:10;;;;;;;7.50;5.05;;;13.70;99.90;;;;;;4943513;29;20978;-94
2021/09/01 18:38:51;;;;;;;8.70;5.38;;;13.60;99.90;;;;;;4928401;29;20764;-95
2021/09/01 18:41:25;;;;;;;8.35;5.28;;;13.60;99.90;;;;;;4928082;29;20483;-95
2021/09/01 18:43:52;;;;;;;9.27;5.03;;;13.60;99.90;;;;;;4925973;29;20438;-94
2021/09/01 18:46:23;;;;;;;7.68;5.25;;;13.50;99.90;;;;;;4927737;29;20514;-95
2021/09/01 18:48:56;;;;;;;7.45;5.32;;;13.50;99.90;;;;;;4925730;29;20915;-96
2021/09/01 18:51:25;;;;;;;8.52;5.43;;;13.40;99.90;;;;;;4923338;29;20432;-94
2021/09/01 18:53:54;;;;;;;8.95;5.30;;;13.40;99.90;;;;;;4926582;29;20451;-94
2021/09/01 18:56:21;;;;;;;10.77;5.82;;;13.20;99.90;;;;;;4923268;29;20791;-95
2021/09/01 18:59:02;;;;;;;9.38;5.55;;;13.20;99.90;;;;;;4924770;29;20427;-95
2021/09/01 19:01:36;;;;;;;9.95;6.22;;;13.10;99.90;;;;;;4924990;29;20439;-94
2021/09/01 19:04:04;;;;;;;9.30;5.90;;;13.00;99.90;;;;;;4924193;29;20434;-94
2021/09/01 19:06:32;;;;;;;10.43;5.40;;;12.90;99.90;;;;;;4926147;29;20435;-94
2021/09/01 19:09:09;;;;;;;12.02;5.80;;;12.90;99.90;;;;;;4955599;29;20579;-94
2021/09/01 19:11:41;;;;;;;9.97;6.03;;;13.00;99.90;;;;;;4926174;29;20926;-93
2021/09/01 19:14:11;;;;;;;7.85;5.65;;;13.00;99.90;;;;;;4923338;29;20436;-93
2021/09/01 19:16:38;;;;;;;11.35;6.50;;;13.00;99.90;;;;;;4922986;29;20448;-94
2021/09/01 19:19:05;;;;;;;8.80;5.70;;;12.90;99.90;;;;;;4926705;29;20442;-95
2021/09/01 19:21:35;;;;;;;14.02;6.20;;;12.90;99.90;;;;;;4925129;29;20411;-94
2021/09/01 19:24:04;;;;;;;10.23;6.40;;;12.80;99.90;;;;;;4925036;29;20420;-94
2021/09/01 19:26:33;;;;;;;9.73;5.70;;;12.80;99.90;;;;;;4939596;29;20741;-94
2021/09/01 19:29:03;;;;;;;10.20;5.75;;;12.80;99.90;;;;;;4924656;29;20421;-95
2021/09/01 19:31:38;;;;;;;8.30;5.68;;;12.80;99.90;;;;;;4923726;29;20427;-94
2021/09/01 19:34:06;;;;;;;9.43;6.00;;;12.70;99.90;;;;;;4926183;29;20435;-95
2021/09/01 19:36:37;;;;;;;10.40;5.78;;;12.80;99.90;;;;;;4927095;29;20949;-95
2021/09/01 19:39:08;;;;;;;9.80;5.85;;;12.70;99.90;;;;;;4923591;29;20454;-95
2021/09/01 19:41:36;;;;;;;12.25;6.03;;;12.70;99.90;;;;;;4925462;29;20436;-94
2021/09/01 19:44:14;;;;;;;9.27;5.50;;;12.80;99.90;;;;;;4920422;29;20832;-94
2021/09/01 19:46:42;;;;;;;9.93;6.00;;;13.00;99.90;;;;;;4921281;29;20821;-94
2021/09/01 19:49:13;;;;;;;11.32;5.50;;;13.00;99.90;;;;;;4922618;29;20503;-93
2021/09/01 19:51:43;;;;;;;11.07;5.40;;;13.00;99.90;;;;;;4921215;29;20434;-94
2021/09/01 19:54:12;;;;;;;9.25;5.55;;;13.00;99.90;;;;;;4923635;29;20502;-94
2021/09/01 19:56:41;;;;;;;9.65;5.88;;;13.10;99.90;;;;;;4923049;29;20515;-94
2021/09/01 20:01:50;;;;;;;10.95;5.95;;;12.90;99.90;;;;;;4978386;23;20486;-94
2021/09/01 20:04:18;;;;;;;8.10;5.20;;;12.80;99.90;;;;;;4924328;29;20478;-94
2021/09/01 20:06:51;;;;;;;7.65;5.13;;;12.80;99.90;;;;;;4964497;23;20442;-94
2021/09/01 20:09:18;;;;;;;7.35;5.40;;;12.80;99.90;;;;;;4942093;29;20426;-93
2021/09/01 20:11:45;;;;;;;10.30;5.50;;;12.70;99.90;;;;;;4942432;29;20971;-93
2021/09/01 20:14:27;;;;;;;8.13;5.50;;;12.60;99.90;;;;;;4958911;29;21028;-94
2021/09/01 20:16:59;;;;;;;8.85;5.65;;;12.60;99.90;;;;;;4950251;23;20452;-93
2021/09/01 20:19:28;;;;;;;8.35;5.07;;;12.60;99.90;;;;;;4941891;29;20504;-93
2021/09/01 20:21:55;;;;;;;9.83;5.10;;;12.60;99.90;;;;;;4945989;29;20421;-93
2021/09/01 20:24:23;;;;;;;7.93;5.40;;;12.70;99.90;;;;;;4942604;29;20846;-93
2021/09/01 20:26:51;;;;;;;8.82;5.18;;;12.70;99.90;;;;;;4939951;29;20437;-93
2021/09/01 20:29:18;;;;;;;7.80;5.18;;;12.60;99.90;;;;;;4941060;29;20433;-92
2021/09/01 20:31:49;;;;;;;10.07;5.00;;;12.50;99.90;;;;;;4940603;29;20430;-93
2021/09/01 20:34:16;;;;;;;8.57;4.83;;;12.40;99.90;;;;;;4941480;29;20472;-93
2021/09/01 20:36:44;;;;;;;10.13;4.82;;;12.40;99.90;;;;;;4941251;29;20442;-93
2021/09/01 20:39:11;;;;;;;8.98;4.70;;;12.60;99.90;;;;;;4925702;29;20938;-94
2021/09/01 20:41:38;;;;;;;7.32;5.15;;;12.60;99.90;;;;;;4941472;29;20444;-94
2021/09/01 20:44:18;;;;;;;8.55;4.90;;;12.70;99.90;;;;;;4942070;29;20762;-93
2021/09/01 20:46:53;;;;;;;9.68;4.80;;;12.60;99.90;;;;;;4943472;29;20425;-93
2021/09/01 20:49:36;;;;;;;12.82;5.47;;;12.60;99.90;;;;;;4941874;29;20426;-93
2021/09/01 20:52:11;;;;;;;8.52;5.32;;;12.30;99.90;;;;;;4941503;29;20752;-92
2021/09/01 20:54:43;;;;;;;8.20;5.07;;;12.10;99.90;;;;;;4972958;28;20441;-94
2021/09/01 20:57:14;;;;;;;9.32;5.30;;;11.90;99.90;;;;;;4950300;29;20446;-93
2021/09/01 20:59:42;;;;;;;8.73;4.72;;;11.80;99.90;;;;;;4943291;29;20782;-93
2021/09/01 21:02:10;;;;;;;8.32;5.07;;;11.80;99.90;;;;;;4943854;29;20433;-93
2021/09/01 21:04:37;;;;;;;9.05;4.93;;;11.80;99.90;;;;;;4945059;29;20421;-93
2021/09/01 21:07:04;;;;;;;9.02;5.05;;;11.70;99.90;;;;;;4944926;29;20436;-93
2021/09/01 21:09:34;;;;;;;9.52;5.60;;;11.60;99.90;;;;;;4951284;29;20416;-93
2021/09/01 21:12:01;;;;;;;8.95;5.60;;;11.50;99.90;;;;;;4951336;29;20429;-94
2021/09/01 21:14:45;;;;;;;14.13;5.82;;;11.30;99.90;;;;;;4949928;23;20415;-94
2021/09/01 21:17:24;;;;;;;12.60;6.63;;;11.20;99.90;;;;;;4955312;23;20499;-94
2021/09/01 21:20:01;;;;;;;9.53;6.43;;;11.10;99.90;;;;;;4955666;28;20506;-95
2021/09/01 21:22:38;;;;;;;12.48;7.30;;;10.90;99.90;;;;;;4934692;29;20432;-94
2021/09/01 21:25:09;;;;;;;10.77;7.25;;;10.90;99.90;;;;;;4953104;23;20747;-95
2021/09/01 21:27:47;;;;;;;12.13;7.57;;;10.90;99.90;;;;;;4986118;23;20464;-95
2021/09/01 21:30:18;;;;;;;13.43;8.02;;;10.80;99.90;;;;;;4951584;28;20436;-96
2021/09/01 21:32:50;;;;;;;11.73;7.63;;;10.90;99.90;;;;;;4955259;29;20514;-95
2021/09/01 21:35:38;;;;;;;12.43;7.70;;;10.80;99.90;;;;;;4950656;28;20430;-96
2021/09/01 21:38:08;;;;;;;15.40;9.10;;;10.60;99.90;;;;;;4956960;23;20941;-96
2021/09/01 21:40:39;;;;;;;14.23;9.90;;;10.60;99.90;;;;;;4950683;29;20439;-94
2021/09/01 21:43:07;;;;;;;14.73;9.73;;;10.60;99.90;;;;;;4936566;23;20428;-95
2021/09/01 21:45:34;;;;;;;13.10;9.10;;;10.60;99.90;;;;;;4957388;23;20540;-95
2021/09/01 21:48:02;;;;;;;15.85;9.90;;;10.50;99.90;;;;;;4973501;23;20453;-95
2021/09/01 21:50:29;;;;;;;17.30;9.90;;;10.40;99.90;;;;;;4953716;29;20421;-95
2021/09/01 21:52:56;;;;;;;16.92;10.43;;;10.40;99.90;;;;;;4949347;23;20479;-96
2021/09/01 21:55:28;;;;;;;17.40;11.13;;;10.40;99.90;;;;;;4937014;23;20435;-95
2021/09/01 21:57:55;;;;;;;17.38;11.20;;;10.30;99.90;;;;;;4952346;23;20441;-94
2021/09/01 22:00:23;;;;;;;17.33;10.95;;;10.30;99.90;;;;;;4942091;23;20454;-95
2021/09/01 22:02:50;;;;;;;18.67;11.27;;;10.30;99.90;;;;;;4949622;28;20417;-95
2021/09/01 22:05:17;;;;;;;20.20;11.70;;;10.30;99.90;;;;;;4952466;28;20522;-95
2021/09/01 22:07:45;;;;;;;19.42;11.98;;;10.30;99.90;;;;;;4958862;23;20477;-95
2021/09/01 22:10:12;;;;;;;21.10;12.60;;;10.20;99.90;;;;;;4950914;28;20444;-94
2021/09/01 22:12:43;;;;;;;21.05;12.55;;;10.30;99.90;;;;;;4953506;28;20961;-95
2021/09/01 22:15:12;;;;;;;20.75;12.90;;;10.20;99.90;;;;;;4958094;23;20949;-95
2021/09/01 22:17:40;;;;;;;20.73;12.50;;;10.20;99.90;;;;;;4953241;28;20956;-95
2021/09/01 22:20:09;;;;;;;18.20;11.45;;;10.20;99.90;;;;;;4953922;28;20472;-96
2021/09/01 22:22:38;;;;;;;19.15;12.82;;;10.00;99.90;;;;;;4934569;29;20497;-96
2021/09/01 22:25:12;;;;;;;20.75;12.40;;;10.00;99.90;;;;;;4951441;28;20437;-94
2021/09/01 22:27:39;;;;;;;21.38;12.68;;;9.90;99.90;;;;;;4963424;23;20446;-94
2021/09/01 22:30:09;;;;;;;19.08;12.60;;;9.80;99.90;;;;;;4953660;23;20418;-96
2021/09/01 22:32:39;;;;;;;22.02;13.10;;;9.80;99.90;;;;;;4945679;28;20483;-95
2021/09/01 22:35:10;;;;;;;23.37;13.37;;;9.80;99.90;;;;;;4956950;23;20533;-95
2021/09/01 22:37:37;;;;;;;22.73;13.98;;;9.70;99.90;;;;;;4951431;28;20532;-95
2021/09/01 22:40:08;;;;;;;23.25;13.85;;;9.70;99.90;;;;;;4959206;28;20501;-95
2021/09/01 22:42:35;;;;;;;22.38;14.23;;;9.70;99.90;;;;;;5125219;23;20438;-95
2021/09/01 22:45:24;;;;;;;22.38;14.27;;;9.70;99.90;;;;;;5007731;23;20479;-94
2021/09/01 22:47:51;;;;;;;25.50;14.77;;;9.70;99.90;;;;;;4948517;28;20521;-94
2021/09/01 22:50:19;;;;;;;23.10;15.00;;;9.80;99.90;;;;;;4953557;23;20427;-94
2021/09/01 22:53:03;;;;;;;24.42;15.20;;;9.70;99.90;;;;;;4944926;29;20411;-95
2021/09/01 22:55:30;;;;;;;23.75;14.73;;;9.70;99.90;;;;;;4984684;23;20877;-94
2021/09/01 22:58:16;;;;;;;24.88;14.95;;;9.70;99.90;;;;;;4950012;28;20459;-94
2021/09/01 23:00:43;;;;;;;25.08;14.90;;;9.70;99.90;;;;;;4944693;28;20838;-95
2021/09/01 23:03:11;;;;;;;23.45;14.63;;;9.70;99.90;;;;;;4954659;23;20819;-94
2021/09/01 23:05:55;;;;;;;23.08;14.88;;;9.70;99.90;;;;;;4946282;28;20411;-95
2021/09/01 23:08:24;;;;;;;24.17;15.60;;;9.60;99.90;;;;;;4947577;28;20525;-95
2021/09/01 23:10:51;;;;;;;23.20;14.65;;;9.50;99.90;;;;;;4948194;28;20432;-94
2021/09/01 23:13:30;;;;;;;26.23;15.80;;;9.60;99.90;;;;;;4962781;23;20520;-96
2021/09/01 23:16:00;;;;;;;23.63;15.23;;;9.60;99.90;;;;;;4950008;28;20441;-95
2021/09/01 23:18:31;;;;;;;21.52;14.27;;;9.70;99.90;;;;;;4951323;28;20421;-95
2021/09/01 23:20:59;;;;;;;20.08;14.25;;;9.70;99.90;;;;;;4949908;29;20444;-95
2021/09/01 23:28:49;;;;;;;27.73;15.55;;;9.60;99.90;;;;;;4962203;28;20477;-96
2021/09/01 23:31:24;;;;;;;26.35;15.43;;;9.60;99.90;;;;;;4990052;23;20490;-94
2021/09/01 23:34:04;;;;;;;24.58;15.57;;;9.60;99.90;;;;;;4980464;23;20482;-95
2021/09/01 23:36:31;;;;;;;27.55;15.80;;;9.70;99.90;;;;;;4951926;28;20523;-94
2021/09/01 23:39:07;;;;;;;23.02;15.27;;;9.70;99.90;;;;;;4951904;28;20488;-96
2021/09/01 23:41:37;;;;;;;23.27;15.43;;;9.70;99.90;;;;;;4969616;23;20423;-96
2021/09/01 23:44:05;;;;;;;23.15;15.80;;;9.70;99.90;;;;;;4930012;29;20415;-94
2021/09/01 23:46:34;;;;;;;22.98;15.05;;;9.70;99.90;;;;;;4929495;29;20514;-95
2021/09/01 23:49:02;;;;;;;27.08;15.35;;;9.70;99.90;;;;;;4950048;23;20449;-96
2021/09/01 23:51:29;;;;;;;23.88;14.52;;;9.70;99.90;;;;;;4958177;23;20509;-96
2021/09/01 23:53:59;;;;;;;23.15;14.43;;;9.70;99.90;;;;;;4950081;29;20441;-95
2021/09/01 23:56:26;;;;;;;23.85;15.77;;;9.80;99.90;;;;;;4948662;29;20806;-96
2021/09/01 23:58:53;;;;;;;21.95;15.02;;;9.60;99.90;;;;;;4949452;29;20461;-95
